WetterOnline ( http://www.wetteronline.de )

Wetter aktuell Weiden

Aktuelles Wetter: Weiden (439m)

6-stündlich | Neueste Meldungen
Ortszeit Temperatur Wetter
Mi, 24.10. 2:00 10.1° C bewölkt
Di, 23.10. 20:00 9.2° C bedeckt
Di, 23.10. 14:00 9.1° C bewölkt
Di, 23.10. 8:00 3.6° C bewölkt
Di, 23.10. 2:00 4.7° C wolkenlos
Mo, 22.10. 20:00 8.9° C Regen
Mo, 22.10. 14:00 12.8° C leicht bewölkt
Mo, 22.10. 8:00 -1.1° C wolkenlos
Ortszeit Temperatur Wetter
Mi, 24.10. 6:00 9.3° C Sprühregen
Mi, 24.10. 5:50 9.3° C Sprühregen
Mi, 24.10. 5:40 9.3° C bewölkt
Mi, 24.10. 5:30 9.2° C Sprühregen
Mi, 24.10. 5:20 9.2° C Sprühregen
Mi, 24.10. 5:10 9.1° C Sprühregen
Mi, 24.10. 5:00 9.2° C Sprühregen
Mi, 24.10. 4:30 9.2° C Sprühregen
Mi, 24.10. 4:00 9.1° C Sprühregen
Mi, 24.10. 3:30 9.7° C Sprühregen
Mi, 24.10. 3:00 9.2° C Sprühregen
Ortszeit Relative Feuchte Sichtweite
Mi, 24.10. 2:00 72% 30 km
Di, 23.10. 20:00 64% 30 km
Di, 23.10. 14:00 64% 24 km
Di, 23.10. 8:00 99% 10 km
Di, 23.10. 2:00 93% 14 km
Mo, 22.10. 20:00 92% 12 km
Mo, 22.10. 14:00 45% 21 km
Mo, 22.10. 8:00 97% 4.5 km
Ortszeit Relative Feuchte Sichtweite
Mi, 24.10. 6:00 87% 15 km
Mi, 24.10. 5:50 87% -
Mi, 24.10. 5:40 88% -
Mi, 24.10. 5:30 88% 18 km
Mi, 24.10. 5:20 88% -
Mi, 24.10. 5:10 89% -
Mi, 24.10. 5:00 87% 5.0 km
Mi, 24.10. 4:30 87% 21 km
Mi, 24.10. 4:00 86% 15 km
Mi, 24.10. 3:30 78% 20 km
Mi, 24.10. 3:00 84% 9 km
Ortszeit Niederschlagsmenge Niederschlagsart
Mi, 24.10. 2:00 0.0 l/m2 in 6 Std. -
Di, 23.10. 20:00 0.1 l/m2 in 12 Std. Regen
Di, 23.10. 14:00 0.0 l/m2 in 6 Std. -
Di, 23.10. 8:00 0.1 l/m2 in 12 Std. -
Di, 23.10. 2:00 0.1 l/m2 in 6 Std. Sprühregen
Mo, 22.10. 20:00 0.8 l/m2 in 12 Std. Regen
Mo, 22.10. 14:00 0.1 l/m2 in 6 Std. -
Mo, 22.10. 8:00 0.0 l/m2 in 12 Std. -
Ortszeit Niederschlagsmenge Niederschlagsart
Mi, 24.10. 6:00 0.1 l/m2 in 1 Std. Regen
Mi, 24.10. 5:50 keine Meldung -
Mi, 24.10. 5:40 keine Meldung -
Mi, 24.10. 5:30 0.1 l/m2 in 1 Std. -
Mi, 24.10. 5:20 keine Meldung -
Mi, 24.10. 5:10 keine Meldung -
Mi, 24.10. 5:00 0.1 l/m2 in 1 Std. Regen
Mi, 24.10. 4:30 0.1 l/m2 in 1 Std. -
Mi, 24.10. 4:00 0.1 l/m2 in 1 Std. Sprühregen
Mi, 24.10. 3:30 0.1 l/m2 in 1 Std. -
Mi, 24.10. 3:00 0.1 l/m2 in 1 Std. Sprühregen
Ortszeit Stärke Spitze Richtung
km/h Bft. km/h Grad Sektor
Mi, 24.10. 2:00 22 4 50 270° W
Di, 23.10. 20:00 17 3 44 260° W
Di, 23.10. 14:00 19 3 37 260° W
Di, 23.10. 8:00 7 2 14 190° S
Di, 23.10. 2:00 4 1 32 110° O
Mo, 22.10. 20:00 14 3 29 350° N
Mo, 22.10. 14:00 6 1 17 270° W
Mo, 22.10. 8:00 0 0 7 - -
Ortszeit Stärke Spitze Richtung
km/h Bft. km/h Grad Sektor
Mi, 24.10. 6:00 20 4 43 270° W
Mi, 24.10. 5:50 20 4 - 270° W
Mi, 24.10. 5:40 20 4 - 270° W
Mi, 24.10. 5:30 20 4 41 270° W
Mi, 24.10. 5:20 20 4 - 270° W
Mi, 24.10. 5:10 20 4 - 260° W
Mi, 24.10. 5:00 19 3 39 260° W
Mi, 24.10. 4:30 18 3 40 270° W
Mi, 24.10. 4:00 20 4 48 270° W
Mi, 24.10. 3:30 18 3 36 260° W
Mi, 24.10. 3:00 17 3 50 270° W
Ortszeit Untergrenze Bedeckung Gattung
total tief tief mittel hoch
Mi, 24.10. 2:00 630 m 7/8 7/8 - - -
Di, 23.10. 20:00 810 m 8/8 8/8 - - -
Di, 23.10. 14:00 2700 m 8/8 6/8 - - -
Di, 23.10. 8:00 870 m 7/8 7/8 - - -
Di, 23.10. 2:00 - 0/8 0/8 - - -
Mo, 22.10. 20:00 330 m 7/8 7/8 - - -
Mo, 22.10. 14:00 2400 m 3/8 3/8 - - -
Mo, 22.10. 8:00 - 0/8 0/8 - - -
Ortszeit Bedeckungsgrad in Achtel und Wolkenuntergrenze
Mi, 24.10. 6:00 7(300m)
Mi, 24.10. 5:50 7(300m)
Mi, 24.10. 5:40 7(300m)
Mi, 24.10. 5:30 1(<30m) 8(300m)
Mi, 24.10. 5:20 1(<30m) 8(300m)
Mi, 24.10. 5:10 1(<30m) 8(330m)
Mi, 24.10. 5:00 8(360m) 8(330m)
Mi, 24.10. 4:30 7(300m)
Mi, 24.10. 4:00 7(390m) 8(480m)
Mi, 24.10. 3:30 8(480m)
Mi, 24.10. 3:00 7(450m)
Ortszeit Luftdruck NN (hPa) Tendenz (hPa in 3 Std.)
Mi, 24.10. 2:00 1017 - 1,6
Di, 23.10. 20:00 1020 - 0,2
Di, 23.10. 14:00 1023 - 2,8
Di, 23.10. 8:00 1028 - 2,2
Di, 23.10. 2:00 1031 - 0,7
Mo, 22.10. 20:00 1030 + 1,9
Mo, 22.10. 14:00 1027 - 0,7
Mo, 22.10. 8:00 1030 + 0,5
Ortszeit Luftdruck NN (hPa) Tendenz (hPa in 3 Std.)
Mi, 24.10. 6:00 1015 - 1,6
Mi, 24.10. 5:50 1015 keine Meldung
Mi, 24.10. 5:40 1015 keine Meldung
Mi, 24.10. 5:30 1015 - 1,8
Mi, 24.10. 5:20 1015 keine Meldung
Mi, 24.10. 5:10 1015 keine Meldung
Mi, 24.10. 5:00 1016 - 1,7
Mi, 24.10. 4:30 1016 - 1,8
Mi, 24.10. 4:00 1017 - 1,4
Mi, 24.10. 3:30 1017 - 0,9
Mi, 24.10. 3:00 1017 - 1,0
Ortszeit Schneehöhe (cm)
Mi, 24.10. 2:00 0
Di, 23.10. 20:00 0
Di, 23.10. 14:00 0
Di, 23.10. 8:00 0
Di, 23.10. 2:00 0
Mo, 22.10. 20:00 0
Mo, 22.10. 14:00 0
Mo, 22.10. 8:00 0
Ortszeit Schneehöhe (cm)
Mi, 24.10. 6:00 0
Mi, 24.10. 5:50 0
Mi, 24.10. 5:40 0
Mi, 24.10. 5:30 0
Mi, 24.10. 5:20 0
Mi, 24.10. 5:10 0
Mi, 24.10. 5:00 0
Mi, 24.10. 4:30 0
Mi, 24.10. 4:00 0
Mi, 24.10. 3:30 0
Mi, 24.10. 3:00 0
Link zu dieser Seite / Seite empfehlen

Das Wetter in ...